Time;durP1;ratioP1;P1;durP2;ratioP2;P2;SDS_P1;SDS_P2;PMS_P1;PMS_P2;Temp;Humidity;BMP_temperature;BMP_pressure;BME280_temperature;BME280_humidity;BME280_pressure;Samples;Min_cycle;Max_cycle;Signal;HPM_P1;HPM_P2
2021/01/10 00:00:23;;;;;;;13.75;6.53;;;;;;;0.84;100.00;93076.41;5050611;28;20456;-89
2021/01/10 00:02:51;;;;;;;15.82;8.00;;;;;;;0.79;100.00;93076.88;5050633;28;20049;-90
2021/01/10 00:05:21;;;;;;;8.40;4.65;;;;;;;0.78;100.00;93085.38;5050406;28;20550;-90
2021/01/10 00:07:47;;;;;;;7.70;4.28;;;;;;;1.03;100.00;93085.47;5050516;28;20417;-90
2021/01/10 00:10:14;;;;;;;;;;;;;;;1.20;100.00;93089.63;5053345;28;20757;-89
2021/01/10 00:12:40;;;;;;;8.73;4.90;;;;;;;1.19;100.00;93090.56;5054415;28;19966;-91
2021/01/10 00:15:07;;;;;;;;;;;;;;;1.20;100.00;93088.81;5055060;28;20045;-90
2021/01/10 00:17:33;;;;;;;10.27;5.53;;;;;;;1.17;100.00;93081.53;5054588;28;19920;-91
2021/01/10 00:20:00;;;;;;;7.35;3.83;;;;;;;1.18;100.00;93089.00;5054288;28;20060;-90
2021/01/10 00:22:26;;;;;;;;;;;;;;;1.27;100.00;93086.47;5054660;28;20424;-91
2021/01/10 00:24:53;;;;;;;5.53;4.20;;;;;;;1.27;100.00;93079.66;5054040;28;19921;-90
2021/01/10 00:27:19;;;;;;;;;;;;;;;1.25;100.00;93093.41;5054591;28;20057;-90
2021/01/10 00:29:48;;;;;;;7.15;4.07;;;;;;;1.32;100.00;93099.44;5054124;28;19921;-91
2021/01/10 00:32:15;;;;;;;5.68;3.67;;;;;;;1.32;100.00;93087.59;5054371;28;20057;-91
2021/01/10 00:34:42;;;;;;;13.35;3.63;;;;;;;1.17;100.00;93061.31;5054107;28;20060;-90
2021/01/10 00:37:09;;;;;;;10.18;3.50;;;;;;;1.32;100.00;93090.13;5054031;28;20049;-91
2021/01/10 00:39:37;;;;;;;5.70;3.00;;;;;;;1.28;100.00;93088.84;5053736;28;20067;-90
2021/01/10 00:42:11;;;;;;;6.22;4.13;;;;;;;1.23;100.00;93072.53;5054103;28;20055;-92
2021/01/10 00:44:37;;;;;;;10.25;5.22;;;;;;;1.15;100.00;93061.44;5053846;28;20095;-91
2021/01/10 00:47:04;;;;;;;;;;;;;;;1.32;100.00;93089.31;5054442;28;20091;-91
2021/01/10 00:49:30;;;;;;;8.93;5.53;;;;;;;1.00;100.00;93041.03;5053961;28;19931;-91
2021/01/10 00:51:56;;;;;;;12.25;6.78;;;;;;;1.27;100.00;93056.91;5053768;28;20500;-90
2021/01/10 00:54:22;;;;;;;;;;;;;;;1.31;100.00;93059.91;5054233;28;20076;-90
2021/01/10 00:56:50;;;;;;;10.40;5.93;;;;;;;1.14;100.00;93051.47;5053916;28;20392;-92
2021/01/10 00:59:18;;;;;;;11.43;7.32;;;;;;;1.23;100.00;93080.91;5053639;28;20379;-92
2021/01/10 01:01:44;;;;;;;14.43;7.20;;;;;;;1.27;100.00;93083.94;5053910;28;20048;-91
2021/01/10 01:04:12;;;;;;;;;;;;;;;1.27;100.00;93074.59;5053943;28;20507;-91
2021/01/10 01:06:38;;;;;;;15.45;8.25;;;;;;;1.22;100.00;93063.34;5053321;28;19925;-90
2021/01/10 01:09:04;;;;;;;15.20;8.73;;;;;;;1.15;100.00;93053.09;5053573;28;20417;-90
2021/01/10 01:11:33;;;;;;;18.10;7.25;;;;;;;1.19;100.00;93051.81;5053412;28;20483;-90
2021/01/10 01:14:01;;;;;;;10.20;6.18;;;;;;;1.24;100.00;93059.72;5053536;28;20053;-90
2021/01/10 01:16:27;;;;;;;14.82;5.15;;;;;;;1.20;100.00;93054.19;5053786;28;20052;-90
2021/01/10 01:18:55;;;;;;;8.65;6.03;;;;;;;1.28;100.00;93065.25;5053212;28;20045;-91
2021/01/10 01:21:22;;;;;;;7.43;4.97;;;;;;;1.29;100.00;93077.00;5052142;28;20063;-91
2021/01/10 01:23:51;;;;;;;13.57;5.90;;;;;;;1.26;100.00;93070.50;5053280;28;20045;-91
2021/01/10 01:26:17;;;;;;;10.95;6.40;;;;;;;1.29;100.00;93059.28;5053214;28;20374;-91
2021/01/10 01:28:43;;;;;;;10.98;5.47;;;;;;;1.28;100.00;93045.00;5053006;28;20056;-91
2021/01/10 01:31:13;;;;;;;;;;;;;;;1.27;100.00;93030.78;5053425;28;20084;-91
2021/01/10 01:33:41;;;;;;;10.43;5.65;;;;;;;1.16;100.00;93034.44;5052851;28;19927;-91
2021/01/10 01:36:10;;;;;;;8.05;4.88;;;;;;;1.22;100.00;93043.91;5053259;28;20049;-90
2021/01/10 01:38:43;;;;;;;18.13;7.30;;;;;;;1.13;100.00;93033.00;5053044;28;20075;-91
2021/01/10 01:41:10;;;;;;;11.90;6.90;;;;;;;1.30;100.00;93055.78;5052840;28;20049;-90
2021/01/10 01:43:37;;;;;;;32.33;15.05;;;;;;;1.30;100.00;93066.69;5052863;28;20045;-90
2021/01/10 01:46:07;;;;;;;31.60;13.35;;;;;;;1.29;100.00;93075.22;5052704;28;20049;-91
2021/01/10 01:48:37;;;;;;;18.27;8.88;;;;;;;1.30;100.00;93079.34;5052444;28;20049;-91
2021/01/10 01:51:04;;;;;;;9.45;5.88;;;;;;;1.16;100.00;93074.91;5052582;28;20490;-91
2021/01/10 01:53:30;;;;;;;8.48;5.18;;;;;;;1.23;100.00;93088.50;5052879;28;20060;-91
2021/01/10 01:55:58;;;;;;;9.70;6.30;;;;;;;1.30;100.00;93078.56;5052661;28;20068;-90
2021/01/10 01:58:26;;;;;;;8.25;4.75;;;;;;;1.23;100.00;93063.22;5052706;28;20115;-90
2021/01/10 02:00:53;;;;;;;9.23;6.28;;;;;;;1.02;100.00;93040.88;5052254;28;20057;-90
2021/01/10 02:03:29;;;;;;;9.60;4.95;;;;;;;1.30;100.00;93081.09;5052342;28;20505;-91
2021/01/10 02:06:00;;;;;;;16.05;8.05;;;;;;;1.32;100.00;93084.25;5052474;28;20051;-90
2021/01/10 02:08:32;;;;;;;9.30;5.70;;;;;;;1.24;100.00;93071.59;5052200;28;20451;-91
2021/01/10 02:11:01;;;;;;;13.13;6.10;;;;;;;1.29;100.00;93075.22;5052258;28;20053;-90
2021/01/10 02:13:31;;;;;;;12.27;5.55;;;;;;;1.32;100.00;93069.06;5052181;28;20074;-90
2021/01/10 02:16:01;;;;;;;6.60;4.28;;;;;;;1.33;100.00;93068.91;5052149;28;20045;-90
2021/01/10 02:18:31;;;;;;;6.72;2.33;;;;;;;1.29;100.00;93079.53;5052107;28;20045;-91
2021/01/10 02:21:03;;;;;;;5.60;3.78;;;;;;;1.15;100.00;93083.44;5052075;28;20053;-91
2021/01/10 02:23:32;;;;;;;3.40;1.95;;;;;;;1.01;100.00;93095.72;5051993;28;20481;-90
2021/01/10 02:26:02;;;;;;;4.28;1.92;;;;;;;1.06;100.00;93092.72;5051854;28;20048;-89
2021/01/10 02:28:31;;;;;;;4.35;2.10;;;;;;;0.94;100.00;93084.66;5052047;28;20136;-89
2021/01/10 02:30:58;;;;;;;6.05;3.88;;;;;;;0.87;100.00;93088.72;5051761;28;20045;-89
2021/01/10 02:33:33;;;;;;;5.30;3.35;;;;;;;0.75;100.00;93076.34;5051820;28;20041;-89
2021/01/10 02:36:07;;;;;;;4.17;3.07;;;;;;;0.87;100.00;93088.72;5051811;28;20095;-89
2021/01/10 02:38:41;;;;;;;5.65;2.78;;;;;;;0.84;100.00;93096.63;5051992;28;20279;-89
2021/01/10 02:41:16;;;;;;;6.03;3.45;;;;;;;0.95;100.00;93098.06;5051775;28;20056;-89
2021/01/10 02:43:49;;;;;;;10.35;5.00;;;;;;;0.89;100.00;93090.16;5051715;28;20123;-89
2021/01/10 02:46:15;;;;;;;8.18;4.68;;;;;;;0.77;100.00;93096.44;5051569;28;20052;-89
2021/01/10 02:48:41;;;;;;;;;;;;;;;0.66;100.00;93089.94;5051737;28;20045;-90
2021/01/10 02:51:08;;;;;;;15.45;6.13;;;;;;;0.46;100.00;93090.16;5051727;28;19928;-89
2021/01/10 02:53:36;;;;;;;8.88;6.30;;;;;;;0.44;100.00;93083.66;5051551;28;20053;-89
2021/01/10 02:56:04;;;;;;;9.70;5.47;;;;;;;0.48;100.00;93093.31;5050440;28;20041;-90
2021/01/10 02:58:35;;;;;;;19.88;8.07;;;;;;;0.00;100.00;93017.16;5051329;28;20056;-89
2021/01/10 03:01:03;;;;;;;16.38;7.10;;;;;;;0.41;100.00;93079.69;5051330;28;20071;-90
2021/01/10 03:03:31;;;;;;;11.93;5.45;;;;;;;0.46;100.00;93095.19;5051136;28;20508;-90
2021/01/10 03:05:59;;;;;;;9.15;5.85;;;;;;;0.64;100.00;93094.31;5050923;28;20409;-92
2021/01/10 03:08:26;;;;;;;11.88;6.43;;;;;;;0.75;100.00;93100.88;5051375;28;20535;-90
2021/01/10 03:10:53;;;;;;;17.25;7.97;;;;;;;0.86;100.00;93109.91;5051254;28;20140;-90
2021/01/10 03:13:21;;;;;;;13.93;7.28;;;;;;;0.97;100.00;93096.19;5051123;28;20049;-90
2021/01/10 03:15:49;;;;;;;9.70;6.20;;;;;;;0.99;100.00;93112.00;5050968;28;20056;-89
2021/01/10 03:18:17;;;;;;;11.38;5.38;;;;;;;1.14;100.00;93125.66;5051074;28;20056;-90
2021/01/10 03:20:44;;;;;;;9.80;5.30;;;;;;;1.15;100.00;93111.28;5051054;28;20060;-90
2021/01/10 03:23:10;;;;;;;13.38;6.30;;;;;;;1.16;100.00;93117.91;5051106;28;20067;-90
2021/01/10 03:25:36;;;;;;;;;;;;;;;0.93;100.00;93119.25;5051455;28;20052;-90
2021/01/10 03:28:03;;;;;;;11.50;3.80;;;;;;;0.76;100.00;93115.09;5050952;28;19920;-89
2021/01/10 03:30:29;;;;;;;8.15;6.03;;;;;;;0.65;100.00;93119.47;5050760;28;20053;-90
2021/01/10 03:32:56;;;;;;;;;;;;;;;0.49;100.00;93116.84;5051141;28;20048;-91
2021/01/10 03:35:22;;;;;;;9.75;5.93;;;;;;;0.61;100.00;93124.97;5050932;28;19924;-90
2021/01/10 03:37:48;;;;;;;;;;;;;;;0.76;100.00;93136.13;5051219;28;20489;-91
2021/01/10 03:40:17;;;;;;;9.38;5.82;;;;;;;0.77;100.00;93124.25;5050685;28;19927;-90
2021/01/10 03:42:43;;;;;;;11.18;5.65;;;;;;;0.78;100.00;93106.41;5050561;28;20136;-91
2021/01/10 03:45:11;;;;;;;9.05;5.18;;;;;;;0.87;100.00;93117.34;5050075;28;20103;-91
2021/01/10 03:47:41;;;;;;;10.25;5.53;;;;;;;0.95;100.00;93128.41;5050869;28;20692;-90
2021/01/10 03:50:10;;;;;;;10.82;5.07;;;;;;;0.76;100.00;93093.13;5050585;28;20126;-91
2021/01/10 03:52:37;;;;;;;11.85;6.47;;;;;;;1.00;100.00;93119.44;5050577;28;20067;-91
2021/01/10 03:55:04;;;;;;;13.70;7.00;;;;;;;1.02;100.00;93111.72;5046864;28;20053;-91
2021/01/10 03:57:30;;;;;;;11.52;6.63;;;;;;;1.03;100.00;93116.59;5010829;28;20058;-91
2021/01/10 03:59:56;;;;;;;;;;;;;;;1.13;100.00;93115.69;5011428;28;20054;-91
2021/01/10 04:02:22;;;;;;;12.38;6.38;;;;;;;1.11;100.00;93117.59;5010826;28;20396;-90
2021/01/10 04:04:48;;;;;;;;;;;;;;;1.11;100.00;93105.72;5011139;28;20054;-91
2021/01/10 04:07:15;;;;;;;10.23;5.55;;;;;;;0.86;100.00;93082.09;5010481;28;19929;-90
2021/01/10 04:09:42;;;;;;;14.38;6.60;;;;;;;1.13;100.00;93108.91;5010866;28;20061;-91
2021/01/10 04:12:08;;;;;;;;;;;;;;;1.24;100.00;93112.09;5011220;28;20046;-91
2021/01/10 04:14:34;;;;;;;9.75;4.82;;;;;;;1.21;100.00;93098.00;5010770;28;20366;-91
2021/01/10 04:17:01;;;;;;;;;;;;;;;1.16;100.00;93100.22;5011397;28;20065;-91
2021/01/10 04:19:27;;;;;;;9.02;4.15;;;;;;;1.16;100.00;93116.16;5010641;28;19921;-92
2021/01/10 04:21:53;;;;;;;;;;;;;;;1.19;100.00;93113.34;5011168;28;21350;-90
2021/01/10 04:24:20;;;;;;;10.35;4.93;;;;;;;1.16;100.00;93113.63;5010693;28;19948;-92
2021/01/10 04:26:48;;;;;;;7.10;4.05;;;;;;;1.16;100.00;93112.84;5010537;28;20439;-92
2021/01/10 04:29:15;;;;;;;5.97;3.90;;;;;;;1.19;100.00;93117.59;5010860;28;20049;-91
2021/01/10 04:31:41;;;;;;;7.60;4.43;;;;;;;1.18;100.00;93093.25;5010715;28;20068;-92
2021/01/10 04:34:08;;;;;;;8.82;5.15;;;;;;;1.07;100.00;93104.47;5010487;28;20051;-91
2021/01/10 04:36:35;;;;;;;8.77;5.70;;;;;;;0.55;100.00;93044.69;5010690;28;20430;-91
2021/01/10 04:39:01;;;;;;;;;;;;;;;1.16;100.00;93108.56;5010796;28;20402;-92
2021/01/10 04:41:28;;;;;;;6.90;3.92;;;;;;;1.18;100.00;93116.00;5010750;28;19932;-91
2021/01/10 04:43:55;;;;;;;11.85;4.43;;;;;;;1.18;100.00;93106.69;5010664;28;20054;-92
2021/01/10 04:46:22;;;;;;;10.15;5.25;;;;;;;0.82;100.00;93053.78;5010425;28;20092;-90
2021/01/10 04:48:49;;;;;;;6.30;4.40;;;;;;;0.96;100.00;93074.38;5014384;28;20112;-91
2021/01/10 04:51:15;;;;;;;5.68;4.47;;;;;;;1.23;100.00;93107.94;5030170;28;20053;-91
2021/01/10 04:53:46;;;;;;;12.32;5.32;;;;;;;1.24;100.00;93100.22;5030017;28;20053;-91
2021/01/10 04:56:14;;;;;;;10.02;4.00;;;;;;;0.93;100.00;93071.19;5030730;28;20524;-91
2021/01/10 04:58:42;;;;;;;8.50;4.10;;;;;;;1.20;100.00;93109.84;5033655;28;20052;-92
2021/01/10 05:01:16;;;;;;;9.43;4.53;;;;;;;1.21;100.00;93098.00;5033476;28;20067;-90
2021/01/10 05:03:43;;;;;;;9.65;5.80;;;;;;;1.22;100.00;93098.78;5033611;28;20056;-91
2021/01/10 05:06:10;;;;;;;8.73;5.75;;;;;;;1.17;100.00;93084.84;5030640;28;20054;-91
2021/01/10 05:08:37;;;;;;;12.23;6.28;;;;;;;1.08;100.00;93064.75;5029898;28;20045;-91
2021/01/10 05:11:03;;;;;;;9.52;5.20;;;;;;;1.26;100.00;93098.34;5032920;28;20041;-91
2021/01/10 05:13:29;;;;;;;;;;;;;;;1.28;100.00;93100.69;5033828;28;20414;-90
2021/01/10 05:15:57;;;;;;;7.95;4.45;;;;;;;1.26;100.00;93100.06;5031423;28;19929;-90
2021/01/10 05:18:23;;;;;;;9.98;5.38;;;;;;;1.26;100.00;93105.94;5033042;28;20053;-90
2021/01/10 05:20:53;;;;;;;11.48;5.07;;;;;;;1.27;100.00;93104.16;5031455;28;20042;-91
2021/01/10 05:23:24;;;;;;;8.20;4.28;;;;;;;1.31;100.00;93096.09;5033124;28;20080;-91
2021/01/10 05:26:04;;;;;;;6.32;4.20;;;;;;;1.29;100.00;93092.94;5032648;28;20061;-91
2021/01/10 05:28:31;;;;;;;6.25;3.67;;;;;;;1.14;100.00;93094.50;5033019;28;20176;-92
2021/01/10 05:31:01;;;;;;;6.43;4.60;;;;;;;1.24;100.00;93104.50;5033262;28;20140;-91
2021/01/10 05:33:27;;;;;;;7.95;4.47;;;;;;;1.18;100.00;93090.72;5032959;28;20042;-92
2021/01/10 05:35:55;;;;;;;5.90;3.08;;;;;;;1.19;100.00;93104.94;5031844;28;20053;-91
2021/01/10 05:38:29;;;;;;;12.98;5.90;;;;;;;1.04;100.00;93092.91;5031712;28;20045;-91
2021/01/10 05:40:57;;;;;;;6.07;3.78;;;;;;;1.05;100.00;93117.25;5024585;28;20060;-92
2021/01/10 05:43:24;;;;;;;5.80;3.67;;;;;;;0.95;100.00;93125.91;5032850;28;20049;-91
2021/01/10 05:45:51;;;;;;;20.98;8.00;;;;;;;0.93;100.00;93100.78;5032772;28;20512;-91
2021/01/10 05:48:19;;;;;;;11.40;5.75;;;;;;;1.05;100.00;93129.91;5032763;28;20096;-91
2021/01/10 05:50:47;;;;;;;16.98;5.22;;;;;;;1.19;100.00;93140.38;5033041;28;20053;-92
2021/01/10 05:53:17;;;;;;;7.95;3.65;;;;;;;0.96;100.00;93147.72;5032832;28;20417;-91
2021/01/10 05:56:01;;;;;;;5.25;2.42;;;;;;;0.87;100.00;93141.81;5032619;28;20409;-90
2021/01/10 05:58:28;;;;;;;3.47;2.38;;;;;;;1.02;100.00;93142.06;5032485;28;20049;-91
2021/01/10 06:00:55;;;;;;;15.93;4.82;;;;;;;0.98;100.00;93144.09;5032555;28;20136;-90
2021/01/10 06:03:24;;;;;;;6.22;2.58;;;;;;;0.80;100.00;93149.25;5032543;28;20054;-91
2021/01/10 06:05:54;;;;;;;16.25;7.43;;;;;;;0.74;100.00;93135.47;5032572;28;20049;-92
2021/01/10 06:08:27;;;;;;;17.38;8.43;;;;;;;0.82;100.00;93132.19;5032119;28;20041;-90
2021/01/10 06:10:54;;;;;;;24.80;12.98;;;;;;;0.77;100.00;93136.88;5032310;28;20041;-91
2021/01/10 06:13:20;;;;;;;;;;;;;;;0.74;100.00;93135.47;5032966;28;20049;-92
2021/01/10 06:15:48;;;;;;;30.55;15.93;;;;;;;0.54;100.00;93132.34;5032442;28;19983;-92
2021/01/10 06:18:15;;;;;;;11.90;8.60;;;;;;;0.36;100.00;93138.25;5032407;28;20128;-92
2021/01/10 06:20:43;;;;;;;14.02;7.68;;;;;;;0.12;100.00;93113.63;5032082;28;20053;-92
2021/01/10 06:23:09;;;;;;;22.27;11.27;;;;;;;0.35;100.00;93126.59;5032192;28;20045;-93
2021/01/10 06:25:38;;;;;;;14.15;7.78;;;;;;;0.49;100.00;93132.81;5032143;28;20056;-93
2021/01/10 06:28:11;;;;;;;27.08;11.70;;;;;;;0.52;100.00;93124.91;5032127;28;20065;-93
2021/01/10 06:30:42;;;;;;;23.30;12.13;;;;;;;0.54;100.00;93137.41;5032300;28;20103;-93
2021/01/10 06:33:12;;;;;;;7.63;5.35;;;;;;;0.44;100.00;93142.59;5032076;28;20049;-90
2021/01/10 06:35:40;;;;;;;12.50;6.50;;;;;;;0.43;100.00;93162.94;5031846;28;20045;-92
2021/01/10 06:38:11;;;;;;;11.00;4.20;;;;;;;0.56;100.00;93157.50;5031805;28;20050;-92
2021/01/10 06:40:39;;;;;;;14.48;7.25;;;;;;;0.47;100.00;93165.00;5031623;28;20127;-91
2021/01/10 06:43:07;;;;;;;24.13;8.07;;;;;;;0.41;100.00;93158.03;5031676;28;20045;-91
2021/01/10 06:45:35;;;;;;;39.85;16.10;;;;;;;0.37;100.00;93147.44;5031991;28;20445;-91
2021/01/10 06:48:02;;;;;;;11.80;6.85;;;;;;;0.25;100.00;93114.06;5031605;28;20049;-92
2021/01/10 06:50:29;;;;;;;20.48;11.13;;;;;;;0.45;100.00;93140.81;5031763;28;20056;-92
2021/01/10 06:53:02;;;;;;;13.75;7.68;;;;;;;0.43;100.00;93130.91;5031470;28;20052;-92
2021/01/10 06:55:30;;;;;;;8.75;3.80;;;;;;;0.69;100.00;93162.91;5031606;28;20053;-94
2021/01/10 06:57:56;;;;;;;7.72;4.93;;;;;;;0.65;100.00;93180.13;5031525;28;20048;-92
2021/01/10 07:00:23;;;;;;;9.48;5.45;;;;;;;0.74;100.00;93182.72;5031344;28;20057;-91
2021/01/10 07:03:08;;;;;;;7.18;4.35;;;;;;;0.83;100.00;93173.44;5031228;28;20046;-92
2021/01/10 07:06:06;;;;;;;4.63;3.13;;;;;;;0.96;100.00;93175.56;5031445;28;20085;-93
2021/01/10 07:08:36;;;;;;;8.85;4.55;;;;;;;0.78;100.00;93156.97;5031359;28;20084;-92
2021/01/10 07:11:36;;;;;;;15.63;5.88;;;;;;;0.91;100.00;93174.25;5031018;28;20437;-92
2021/01/10 07:14:28;;;;;;;8.32;5.93;;;;;;;1.04;100.00;93191.56;4950841;29;20435;-93
2021/01/10 07:17:17;;;;;;;28.42;13.02;;;;;;;1.01;100.00;93198.63;5027017;28;20107;-92
2021/01/10 07:19:50;;;;;;;16.13;7.10;;;;;;;0.97;100.00;93192.31;5030308;28;20054;-93
2021/01/10 07:22:23;;;;;;;15.77;8.40;;;;;;;1.03;100.00;93195.00;5031034;28;20046;-93
2021/01/10 07:24:49;;;;;;;10.85;6.43;;;;;;;1.05;100.00;93194.88;5031085;28;20053;-93
2021/01/10 07:27:29;;;;;;;29.13;11.98;;;;;;;0.95;100.00;93192.47;5032129;28;20050;-93
2021/01/10 07:29:55;;;;;;;12.02;7.43;;;;;;;0.89;100.00;93200.66;5030898;28;20100;-92
2021/01/10 07:32:32;;;;;;;;;;;;;;;0.96;100.00;93199.09;5031658;28;20049;-94
2021/01/10 07:35:00;;;;;;;22.02;9.48;;;;;;;0.63;100.00;93164.34;5031181;28;19921;-94
2021/01/10 07:37:29;;;;;;;26.60;13.32;;;;;;;0.61;100.00;93178.06;5030844;28;20076;-94
2021/01/10 07:39:57;;;;;;;27.42;12.00;;;;;;;0.70;100.00;93187.28;5031524;28;20548;-95
2021/01/10 07:42:24;;;;;;;18.77;11.48;;;;;;;0.78;100.00;93186.50;5030859;28;20049;-94
2021/01/10 07:44:53;;;;;;;29.05;16.23;;;;;;;0.95;100.00;93192.47;5030475;28;20374;-96
2021/01/10 07:47:42;;;;;;;19.33;8.60;;;;;;;1.05;100.00;93198.19;5030953;28;20053;-95
2021/01/10 07:50:19;;;;;;;17.63;7.28;;;;;;;1.14;100.00;93203.28;5030896;28;20112;-93
2021/01/10 07:52:56;;;;;;;25.10;13.60;;;;;;;1.08;100.00;93173.53;5030757;28;20053;-93
2021/01/10 07:55:26;;;;;;;23.77;13.38;;;;;;;1.31;100.00;93197.34;5030990;28;20152;-91
2021/01/10 07:57:54;;;;;;;17.25;9.50;;;;;;;1.24;100.00;93180.41;5030861;28;20099;-91
2021/01/10 08:00:23;;;;;;;15.15;8.88;;;;;;;1.52;100.00;93223.22;5030707;28;20049;-90
2021/01/10 08:02:58;;;;;;;15.57;7.55;;;;;;;1.59;100.00;93219.09;5030766;28;20073;-90
2021/01/10 08:05:30;;;;;;;56.92;20.45;;;;;;;1.66;100.00;93227.66;5030701;28;20095;-91
2021/01/10 08:08:03;;;;;;;23.90;10.98;;;;;;;1.68;100.00;93227.50;5030994;28;20049;-89
2021/01/10 08:10:43;;;;;;;31.75;14.82;;;;;;;1.66;100.00;93224.34;5030885;28;20085;-89
2021/01/10 08:13:29;;;;;;;12.88;7.60;;;;;;;1.63;100.00;93212.78;5030631;28;20095;-89
2021/01/10 08:15:58;;;;;;;15.30;8.75;;;;;;;1.63;100.00;93205.19;5030618;28;20045;-87
2021/01/10 08:18:27;;;;;;;15.77;8.20;;;;;;;1.50;100.00;93200.56;5030531;28;20052;-88
2021/01/10 08:20:54;;;;;;;10.93;5.20;;;;;;;1.24;100.00;93188.00;5030467;28;20058;-87
2021/01/10 08:23:20;;;;;;;10.32;5.70;;;;;;;1.16;100.00;93227.47;5030491;28;20061;-87
2021/01/10 08:25:47;;;;;;;11.20;6.18;;;;;;;1.00;100.00;93224.88;5030485;28;20425;-87
2021/01/10 08:28:17;;;;;;;7.03;4.55;;;;;;;0.71;100.00;93223.47;5030178;28;20469;-87
2021/01/10 08:30:43;;;;;;;11.60;5.55;;;;;;;0.73;100.00;93229.16;5032002;28;20465;-86
2021/01/10 08:33:17;;;;;;;;;;;;;;;0.74;100.00;93226.47;5026853;28;20057;-86
2021/01/10 08:35:44;;;;;;;17.05;8.77;;;;;;;0.77;100.00;93230.44;5034349;28;19921;-87
2021/01/10 08:38:10;;;;;;;23.58;11.38;;;;;;;0.79;100.00;93236.16;5034157;28;20410;-88
2021/01/10 08:40:36;;;;;;;16.48;7.22;;;;;;;0.84;100.00;93245.81;5034070;28;20072;-87
2021/01/10 08:43:03;;;;;;;;;;;;;;;0.76;100.00;93246.56;5034400;28;20088;-87
2021/01/10 08:45:29;;;;;;;20.42;8.88;;;;;;;0.67;100.00;93228.03;5034251;28;19921;-89
2021/01/10 08:47:56;;;;;;;21.45;10.85;;;;;;;0.58;100.00;93223.84;5033565;28;20053;-89
2021/01/10 08:50:23;;;;;;;22.88;8.95;;;;;;;0.91;100.00;93264.50;5033959;28;20525;-90
2021/01/10 08:52:56;;;;;;;24.42;9.55;;;;;;;0.89;100.00;93244.41;5033827;28;20060;-88
2021/01/10 08:55:37;;;;;;;23.15;10.10;;;;;;;1.15;100.00;93263.84;5040933;28;20033;-89
2021/01/10 08:58:04;;;;;;;21.27;12.07;;;;;;;1.15;100.00;93266.38;5050697;28;20044;-89
2021/01/10 09:00:32;;;;;;;21.02;9.18;;;;;;;1.20;100.00;93266.72;5052891;28;20048;-90
2021/01/10 09:03:15;;;;;;;53.17;26.25;;;;;;;1.33;100.00;93252.88;5053669;28;20052;-92
2021/01/10 09:05:44;;;;;;;42.17;16.58;;;;;;;1.44;100.00;93250.06;5053454;28;20045;-95
2021/01/10 09:08:22;;;;;;;21.15;9.85;;;;;;;1.09;100.00;93202.94;5054029;28;20041;-93
2021/01/10 09:10:58;;;;;;;20.20;10.70;;;;;;;1.38;100.00;93244.84;5038754;28;20509;-96
2021/01/10 09:13:31;;;;;;;40.97;20.67;;;;;;;1.17;100.00;93203.00;5039128;28;20049;-96
2021/01/10 09:18:47;;;;;;;22.48;11.27;;;;;;;1.44;100.00;93226.50;5057950;23;20084;-96
2021/01/10 09:21:16;;;;;;;13.50;8.30;;;;;;;0.62;100.00;93108.84;5027312;28;20056;-96
2021/01/10 09:23:51;;;;;;;13.13;9.30;;;;;;;0.58;100.00;93102.50;5227217;23;20045;-96
2021/01/10 09:26:29;;;;;;;8.98;5.70;;;;;;;0.60;100.00;93110.75;5053132;28;20084;-96
2021/01/10 09:28:55;;;;;;;12.43;7.38;;;;;;;1.34;100.00;93208.88;5035446;28;20077;-96
2021/01/10 09:31:38;;;;;;;7.90;5.28;;;;;;;1.36;100.00;93188.50;5027628;28;20046;-96
2021/01/10 09:34:05;;;;;;;78.55;33.78;;;;;;;0.76;100.00;93079.69;5037206;28;20057;-95
2021/01/10 09:36:32;;;;;;;128.20;48.75;;;;;;;0.93;100.00;93121.00;5661480;23;20054;-95
2021/01/10 09:38:59;;;;;;;28.77;10.70;;;;;;;1.19;100.00;93165.66;4998071;28;20058;-94
2021/01/10 09:41:25;;;;;;;;;;;;;;;1.51;100.00;93204.69;4996791;28;20050;-96
2021/01/10 09:43:53;;;;;;;19.92;11.75;;;;;;;1.20;100.00;93187.50;4995087;28;19928;-93
2021/01/10 09:46:24;;;;;;;22.85;14.43;;;;;;;1.15;100.00;93160.13;4975446;28;167423;-96
2021/01/10 09:48:51;;;;;;;37.90;16.48;;;;;;;1.35;100.00;93209.69;5013619;28;20461;-96
2021/01/10 09:51:18;;;;;;;39.35;14.93;;;;;;;1.48;100.00;93206.72;5012978;28;20062;-95
2021/01/10 09:53:47;;;;;;;66.05;30.75;;;;;;;1.41;100.00;93206.53;5011906;28;20050;-96
2021/01/10 09:56:15;;;;;;;52.45;21.63;;;;;;;1.29;100.00;93206.81;4993659;28;20422;-96
2021/01/10 09:58:42;;;;;;;19.13;10.60;;;;;;;1.25;100.00;93203.00;4993200;28;20061;-96
2021/01/10 10:01:09;;;;;;;;;;;;;;;1.32;100.00;93193.06;4994182;28;20057;-94
2021/01/10 10:03:36;;;;;;;20.10;10.45;;;;;;;1.07;100.00;93195.53;4994020;28;19933;-96
2021/01/10 10:06:06;;;;;;;92.82;39.58;;;;;;;1.02;100.00;93180.00;5001113;28;20074;-96
2021/01/10 10:08:34;;;;;;;40.97;16.95;;;;;;;0.53;100.00;93077.69;5104910;23;20123;-95
2021/01/10 10:11:19;;;;;;;38.45;18.50;;;;;;;1.32;100.00;93172.81;5036859;28;20053;-96
2021/01/10 10:13:45;;;;;;;28.27;12.85;;;;;;;1.04;100.00;93127.50;5032719;28;20049;-96
2021/01/10 10:16:16;;;;;;;;;;;;;;;1.40;100.00;93161.94;5033816;28;20053;-96
2021/01/10 10:18:43;;;;;;;45.85;19.13;;;;;;;1.33;100.00;93106.06;5035114;28;20411;-95
2021/01/10 10:21:09;;;;;;;19.27;10.85;;;;;;;1.27;100.00;93112.56;5035102;28;20505;-95
2021/01/10 10:23:35;;;;;;;51.05;22.17;;;;;;;1.22;100.00;93088.66;5035481;28;20049;-93
2021/01/10 10:26:01;;;;;;;;;;;;;;;1.74;100.00;93130.66;5035535;28;20062;-92
2021/01/10 10:28:28;;;;;;;26.85;13.35;;;;;;;1.37;100.00;93040.75;5035934;28;19921;-91
2021/01/10 10:31:43;;;;;;;21.80;10.95;;;;;;;2.05;100.00;93131.78;5034754;28;20055;-93
2021/01/10 10:34:22;;;;;;;23.10;10.18;;;;;;;2.29;100.00;93142.84;5035085;28;20056;-93
2021/01/10 10:36:48;;;;;;;30.77;14.13;;;;;;;1.95;100.00;93096.47;5033321;28;20049;-92
2021/01/10 10:39:15;;;;;;;15.70;7.30;;;;;;;2.26;100.00;93133.81;5032183;28;20041;-91
2021/01/10 10:41:41;;;;;;;;;;;;;;;2.38;100.00;93142.69;5032048;28;20053;-90
2021/01/10 10:44:08;;;;;;;11.35;5.75;;;;;;;2.13;100.00;93137.63;5032033;28;20396;-89
2021/01/10 10:46:34;;;;;;;13.32;7.55;;;;;;;2.11;100.00;93131.13;5031740;28;20047;-90
2021/01/10 10:49:00;;;;;;;;;;;;;;;2.06;100.00;93139.22;5032111;28;20054;-91
2021/01/10 10:51:29;;;;;;;13.40;8.05;;;;;;;1.87;100.00;93127.66;5031764;28;19928;-91
2021/01/10 10:53:55;;;;;;;15.82;7.45;;;;;;;1.89;100.00;93128.28;5030568;28;20495;-91
2021/01/10 10:56:21;;;;;;;15.32;7.78;;;;;;;2.00;100.00;93127.19;5031502;28;20053;-91
2021/01/10 10:58:47;;;;;;;;;;;;;;;2.05;100.00;93130.03;5032176;28;20050;-92
2021/01/10 11:01:15;;;;;;;14.88;7.88;;;;;;;2.07;100.00;93128.13;5031766;28;19928;-91
2021/01/10 11:03:41;;;;;;;18.63;8.52;;;;;;;2.01;100.00;93141.44;5031503;28;20049;-90
2021/01/10 11:06:07;;;;;;;13.38;8.07;;;;;;;1.95;100.00;93137.00;5031420;28;20046;-90
2021/01/10 11:08:33;;;;;;;13.48;7.78;;;;;;;2.00;100.00;93122.91;5033148;28;20060;-89
2021/01/10 11:10:59;;;;;;;18.08;9.05;;;;;;;1.75;100.00;93101.06;5031432;28;20056;-91
2021/01/10 11:13:25;;;;;;;;;;;;;;;1.98;100.00;93146.81;5031904;28;20048;-90
2021/01/10 11:15:52;;;;;;;24.60;12.82;;;;;;;1.90;100.00;93137.47;5031184;28;19925;-91
2021/01/10 11:18:19;;;;;;;33.60;16.45;;;;;;;1.86;100.00;93141.28;5031313;28;20096;-90
2021/01/10 11:20:50;;;;;;;32.15;16.10;;;;;;;1.82;100.00;93134.94;5033350;28;20072;-88
2021/01/10 11:23:16;;;;;;;30.85;16.25;;;;;;;1.79;100.00;93122.56;5030475;28;20053;-90
2021/01/10 11:25:42;;;;;;;29.77;14.73;;;;;;;1.63;100.00;93106.44;5031271;28;20049;-90
2021/01/10 11:28:09;;;;;;;25.67;14.93;;;;;;;1.65;100.00;93099.47;5031193;28;20527;-89
2021/01/10 11:30:36;;;;;;;28.65;12.90;;;;;;;1.75;100.00;93099.31;5031189;28;20077;-89
2021/01/10 11:33:03;;;;;;;27.48;13.20;;;;;;;1.84;100.00;93097.56;5030905;28;20494;-90
2021/01/10 11:35:30;;;;;;;25.55;12.23;;;;;;;1.85;100.00;93092.34;5030978;28;20053;-91
2021/01/10 11:37:56;;;;;;;30.50;15.95;;;;;;;1.87;100.00;93071.94;5030750;28;20143;-89
2021/01/10 11:40:22;;;;;;;;;;;;;;;1.89;100.00;93064.19;5031577;28;20049;-89
2021/01/10 11:42:49;;;;;;;43.03;17.48;;;;;;;1.72;100.00;93034.59;5030845;28;20373;-90
2021/01/10 11:45:15;;;;;;;57.58;24.30;;;;;;;1.97;100.00;93064.16;5030812;28;20060;-89